sensor_id;sensor_type;location;lat;lon;timestamp;pressure;altitude;pressure_sealevel;temperature;humidity
498;BME280;39559;48.630;9.162;2023-08-21T00:00:28;97981.50;;;19.91;100.00
498;BME280;39559;48.630;9.162;2023-08-21T00:02:54;97979.38;;;19.97;100.00
498;BME280;39559;48.630;9.162;2023-08-21T00:05:19;97976.75;;;19.97;100.00
498;BME280;39559;48.630;9.162;2023-08-21T00:07:45;97985.63;;;19.96;100.00
498;BME280;39559;48.630;9.162;2023-08-21T00:10:11;97980.00;;;20.00;100.00
498;BME280;39559;48.630;9.162;2023-08-21T00:14:36;97981.63;;;20.14;100.00
498;BME280;39559;48.630;9.162;2023-08-21T00:17:02;97976.25;;;20.16;100.00
498;BME280;39559;48.630;9.162;2023-08-21T00:19:29;97974.66;;;20.13;100.00
498;BME280;39559;48.630;9.162;2023-08-21T00:21:54;97981.03;;;20.10;100.00
498;BME280;39559;48.630;9.162;2023-08-21T00:24:20;97978.81;;;20.04;100.00
498;BME280;39559;48.630;9.162;2023-08-21T00:26:45;97979.31;;;20.09;100.00
498;BME280;39559;48.630;9.162;2023-08-21T00:29:11;97977.81;;;20.18;100.00
498;BME280;39559;48.630;9.162;2023-08-21T00:31:37;97976.25;;;20.16;100.00
498;BME280;39559;48.630;9.162;2023-08-21T00:34:02;97973.22;;;20.09;100.00
498;BME280;39559;48.630;9.162;2023-08-21T00:38:30;97976.28;;;20.03;100.00
498;BME280;39559;48.630;9.162;2023-08-21T00:40:56;97970.53;;;19.98;100.00
498;BME280;39559;48.630;9.162;2023-08-21T00:43:22;97970.63;;;19.96;100.00
498;BME280;39559;48.630;9.162;2023-08-21T00:45:50;97973.16;;;19.98;100.00
498;BME280;39559;48.630;9.162;2023-08-21T00:48:15;97970.78;;;20.06;100.00
498;BME280;39559;48.630;9.162;2023-08-21T00:50:42;97962.38;;;20.01;100.00
498;BME280;39559;48.630;9.162;2023-08-21T00:53:09;97960.00;;;19.98;100.00
498;BME280;39559;48.630;9.162;2023-08-21T00:55:37;97960.38;;;19.80;100.00
498;BME280;39559;48.630;9.162;2023-08-21T00:58:04;97963.47;;;19.74;100.00
498;BME280;39559;48.630;9.162;2023-08-21T01:02:24;97958.38;;;19.71;100.00
498;BME280;39559;48.630;9.162;2023-08-21T01:04:49;97969.66;;;19.73;100.00
498;BME280;39559;48.630;9.162;2023-08-21T01:07:15;97960.38;;;19.67;100.00
498;BME280;39559;48.630;9.162;2023-08-21T01:09:55;97961.47;;;19.65;100.00
498;BME280;39559;48.630;9.162;2023-08-21T01:12:32;97966.09;;;19.61;100.00
498;BME280;39559;48.630;9.162;2023-08-21T01:15:02;97961.09;;;19.69;100.00
498;BME280;39559;48.630;9.162;2023-08-21T01:17:29;97961.44;;;19.78;100.00
498;BME280;39559;48.630;9.162;2023-08-21T01:19:56;97962.59;;;19.73;100.00
498;BME280;39559;48.630;9.162;2023-08-21T01:22:26;97965.31;;;19.85;100.00
498;BME280;39559;48.630;9.162;2023-08-21T01:26:22;97966.63;;;19.53;100.00
498;BME280;39559;48.630;9.162;2023-08-21T01:28:47;97965.78;;;19.53;100.00
498;BME280;39559;48.630;9.162;2023-08-21T01:31:25;97970.38;;;19.38;100.00
498;BME280;39559;48.630;9.162;2023-08-21T01:33:54;97964.38;;;19.36;100.00
498;BME280;39559;48.630;9.162;2023-08-21T01:36:22;97962.91;;;19.32;100.00
498;BME280;39559;48.630;9.162;2023-08-21T01:38:48;97964.38;;;19.36;100.00
498;BME280;39559;48.630;9.162;2023-08-21T01:41:14;97966.28;;;19.34;100.00
498;BME280;39559;48.630;9.162;2023-08-21T01:43:39;97966.56;;;19.42;100.00
498;BME280;39559;48.630;9.162;2023-08-21T01:46:06;97963.41;;;19.37;100.00
498;BME280;39559;48.630;9.162;2023-08-21T01:50:12;97967.69;;;19.14;100.00
498;BME280;39559;48.630;9.162;2023-08-21T01:52:38;97964.59;;;19.20;100.00
498;BME280;39559;48.630;9.162;2023-08-21T01:55:05;97961.75;;;19.23;100.00
498;BME280;39559;48.630;9.162;2023-08-21T01:57:33;97964.91;;;19.15;100.00
498;BME280;39559;48.630;9.162;2023-08-21T01:59:59;97964.19;;;19.13;100.00
498;BME280;39559;48.630;9.162;2023-08-21T02:02:24;97964.06;;;19.28;100.00
498;BME280;39559;48.630;9.162;2023-08-21T02:04:50;97966.41;;;19.20;100.00
498;BME280;39559;48.630;9.162;2023-08-21T02:07:16;97967.44;;;19.17;100.00
498;BME280;39559;48.630;9.162;2023-08-21T02:09:41;97959.25;;;19.09;100.00
498;BME280;39559;48.630;9.162;2023-08-21T02:14:06;97963.69;;;19.08;100.00
498;BME280;39559;48.630;9.162;2023-08-21T02:16:32;97963.97;;;19.16;100.00
498;BME280;39559;48.630;9.162;2023-08-21T02:18:58;97961.97;;;19.20;100.00
498;BME280;39559;48.630;9.162;2023-08-21T02:21:24;97963.88;;;19.18;100.00
498;BME280;39559;48.630;9.162;2023-08-21T02:23:49;97960.44;;;19.05;100.00
498;BME280;39559;48.630;9.162;2023-08-21T02:26:15;97957.81;;;18.92;100.00
498;BME280;39559;48.630;9.162;2023-08-21T02:28:48;97961.56;;;18.88;100.00
498;BME280;39559;48.630;9.162;2023-08-21T02:31:14;97961.56;;;18.88;100.00
498;BME280;39559;48.630;9.162;2023-08-21T02:33:40;97961.56;;;18.88;100.00
498;BME280;39559;48.630;9.162;2023-08-21T02:38:00;97959.03;;;18.86;100.00
498;BME280;39559;48.630;9.162;2023-08-21T02:40:26;97958.63;;;18.92;100.00
498;BME280;39559;48.630;9.162;2023-08-21T02:42:51;97958.53;;;18.94;100.00
498;BME280;39559;48.630;9.162;2023-08-21T02:45:17;97962.75;;;18.84;100.00
498;BME280;39559;48.630;9.162;2023-08-21T02:47:44;97961.03;;;18.83;100.00
498;BME280;39559;48.630;9.162;2023-08-21T02:50:10;97957.56;;;18.82;100.00
498;BME280;39559;48.630;9.162;2023-08-21T02:52:36;97963.47;;;18.86;100.00
498;BME280;39559;48.630;9.162;2023-08-21T02:55:03;97957.75;;;18.79;100.00
498;BME280;39559;48.630;9.162;2023-08-21T02:57:32;97958.19;;;18.73;100.00
498;BME280;39559;48.630;9.162;2023-08-21T03:01:56;97957.63;;;18.68;100.00
498;BME280;39559;48.630;9.162;2023-08-21T03:04:24;97963.22;;;18.63;100.00
498;BME280;39559;48.630;9.162;2023-08-21T03:06:51;97962.25;;;18.64;100.00
498;BME280;39559;48.630;9.162;2023-08-21T03:09:17;97963.53;;;18.58;100.00
498;BME280;39559;48.630;9.162;2023-08-21T03:11:44;97959.97;;;18.59;100.00
498;BME280;39559;48.630;9.162;2023-08-21T03:14:11;97970.78;;;18.68;100.00
498;BME280;39559;48.630;9.162;2023-08-21T03:16:37;97967.53;;;18.64;100.00
498;BME280;39559;48.630;9.162;2023-08-21T03:19:02;97960.59;;;18.63;100.00
498;BME280;39559;48.630;9.162;2023-08-21T03:21:28;97971.84;;;18.65;100.00
498;BME280;39559;48.630;9.162;2023-08-21T03:25:52;97961.22;;;18.41;100.00
498;BME280;39559;48.630;9.162;2023-08-21T03:28:18;97972.03;;;18.36;100.00
498;BME280;39559;48.630;9.162;2023-08-21T03:30:43;97968.84;;;18.31;100.00
498;BME280;39559;48.630;9.162;2023-08-21T03:33:09;97966.31;;;18.30;100.00
498;BME280;39559;48.630;9.162;2023-08-21T03:35:34;97969.47;;;18.22;100.00
498;BME280;39559;48.630;9.162;2023-08-21T03:38:00;97970.75;;;18.29;100.00
498;BME280;39559;48.630;9.162;2023-08-21T03:40:25;97970.13;;;18.38;100.00
498;BME280;39559;48.630;9.162;2023-08-21T03:42:51;97970.88;;;18.40;100.00
498;BME280;39559;48.630;9.162;2023-08-21T03:45:16;97970.75;;;18.42;100.00
498;BME280;39559;48.630;9.162;2023-08-21T03:49:44;97966.25;;;18.44;100.00
498;BME280;39559;48.630;9.162;2023-08-21T03:52:09;97967.09;;;18.45;100.00
498;BME280;39559;48.630;9.162;2023-08-21T03:54:35;97969.28;;;18.25;100.00
498;BME280;39559;48.630;9.162;2023-08-21T03:57:00;97981.34;;;18.28;100.00
498;BME280;39559;48.630;9.162;2023-08-21T03:59:26;97972.81;;;18.24;100.00
498;BME280;39559;48.630;9.162;2023-08-21T04:01:54;97971.81;;;18.27;100.00
498;BME280;39559;48.630;9.162;2023-08-21T04:04:19;97975.00;;;18.45;100.00
498;BME280;39559;48.630;9.162;2023-08-21T04:06:45;97983.59;;;18.34;100.00
498;BME280;39559;48.630;9.162;2023-08-21T04:09:10;97980.06;;;18.20;100.00
498;BME280;39559;48.630;9.162;2023-08-21T04:13:39;97987.31;;;18.17;100.00
498;BME280;39559;48.630;9.162;2023-08-21T04:16:04;97998.34;;;18.09;100.00
498;BME280;39559;48.630;9.162;2023-08-21T04:18:30;98000.78;;;18.12;100.00
498;BME280;39559;48.630;9.162;2023-08-21T04:20:55;98000.28;;;18.20;100.00
498;BME280;39559;48.630;9.162;2023-08-21T04:23:21;98001.22;;;18.32;100.00
498;BME280;39559;48.630;9.162;2023-08-21T04:25:46;97997.47;;;18.36;100.00
498;BME280;39559;48.630;9.162;2023-08-21T04:28:12;97999.13;;;18.24;100.00
498;BME280;39559;48.630;9.162;2023-08-21T04:30:40;98007.06;;;18.10;100.00
498;BME280;39559;48.630;9.162;2023-08-21T04:33:06;98004.75;;;18.05;100.00
498;BME280;39559;48.630;9.162;2023-08-21T04:37:33;98005.78;;;18.02;100.00
498;BME280;39559;48.630;9.162;2023-08-21T04:39:58;98004.47;;;17.95;100.00
498;BME280;39559;48.630;9.162;2023-08-21T04:42:24;98005.44;;;17.94;100.00
498;BME280;39559;48.630;9.162;2023-08-21T04:44:49;98005.63;;;17.91;100.00
498;BME280;39559;48.630;9.162;2023-08-21T04:47:25;98004.69;;;17.92;100.00
498;BME280;39559;48.630;9.162;2023-08-21T04:49:52;98008.41;;;18.02;100.00
498;BME280;39559;48.630;9.162;2023-08-21T04:52:18;98009.81;;;18.08;100.00
498;BME280;39559;48.630;9.162;2023-08-21T04:54:49;98008.75;;;18.11;100.00
498;BME280;39559;48.630;9.162;2023-08-21T04:57:15;98010.22;;;18.15;100.00
498;BME280;39559;48.630;9.162;2023-08-21T05:01:27;98005.53;;;18.20;100.00
498;BME280;39559;48.630;9.162;2023-08-21T05:03:53;98009.53;;;18.26;100.00
498;BME280;39559;48.630;9.162;2023-08-21T05:06:20;98014.69;;;18.27;100.00
498;BME280;39559;48.630;9.162;2023-08-21T05:08:45;98012.81;;;18.29;100.00
498;BME280;39559;48.630;9.162;2023-08-21T05:11:11;98011.44;;;18.23;100.00
498;BME280;39559;48.630;9.162;2023-08-21T05:13:36;98011.63;;;18.20;100.00
498;BME280;39559;48.630;9.162;2023-08-21T05:16:02;98020.75;;;18.15;100.00
498;BME280;39559;48.630;9.162;2023-08-21T05:18:27;98024.34;;;18.14;100.00
498;BME280;39559;48.630;9.162;2023-08-21T05:20:55;98027.72;;;18.16;100.00
498;BME280;39559;48.630;9.162;2023-08-21T05:25:22;98027.09;;;18.25;100.00
498;BME280;39559;48.630;9.162;2023-08-21T05:27:48;98027.28;;;18.22;100.00
498;BME280;39559;48.630;9.162;2023-08-21T05:30:13;98024.56;;;18.23;100.00
498;BME280;39559;48.630;9.162;2023-08-21T05:32:40;98031.84;;;18.33;100.00
498;BME280;39559;48.630;9.162;2023-08-21T05:35:06;98029.69;;;18.39;100.00
498;BME280;39559;48.630;9.162;2023-08-21T05:37:33;98029.44;;;18.42;100.00
498;BME280;39559;48.630;9.162;2023-08-21T05:39:59;98033.03;;;18.41;100.00
498;BME280;39559;48.630;9.162;2023-08-21T05:42:24;98034.31;;;18.49;100.00
498;BME280;39559;48.630;9.162;2023-08-21T05:44:50;98034.75;;;18.55;100.00
498;BME280;39559;48.630;9.162;2023-08-21T05:49:17;98038.38;;;18.67;100.00
498;BME280;39559;48.630;9.162;2023-08-21T05:51:42;98040.34;;;18.64;100.00
498;BME280;39559;48.630;9.162;2023-08-21T05:54:08;98043.19;;;18.73;100.00
498;BME280;39559;48.630;9.162;2023-08-21T05:56:33;98046.94;;;18.84;100.00
498;BME280;39559;48.630;9.162;2023-08-21T05:58:59;98047.59;;;18.87;100.00
498;BME280;39559;48.630;9.162;2023-08-21T06:01:24;98049.50;;;19.11;100.00
498;BME280;39559;48.630;9.162;2023-08-21T06:03:50;98053.28;;;19.20;100.00
498;BME280;39559;48.630;9.162;2023-08-21T06:06:15;98045.50;;;19.18;100.00
498;BME280;39559;48.630;9.162;2023-08-21T06:08:41;98045.41;;;19.20;100.00
498;BME280;39559;48.630;9.162;2023-08-21T06:13:12;98045.16;;;19.35;100.00
498;BME280;39559;48.630;9.162;2023-08-21T06:15:37;98041.47;;;19.38;100.00
498;BME280;39559;48.630;9.162;2023-08-21T06:18:04;98035.47;;;19.49;100.00
498;BME280;39559;48.630;9.162;2023-08-21T06:20:29;98042.50;;;19.61;100.00
498;BME280;39559;48.630;9.162;2023-08-21T06:22:55;98040.50;;;19.65;100.00
498;BME280;39559;48.630;9.162;2023-08-21T06:25:21;98034.78;;;19.71;100.00
498;BME280;39559;48.630;9.162;2023-08-21T06:27:46;98046.25;;;19.83;100.00
498;BME280;39559;48.630;9.162;2023-08-21T06:30:13;98038.88;;;19.88;100.00
498;BME280;39559;48.630;9.162;2023-08-21T06:32:38;98043.63;;;19.83;100.00
498;BME280;39559;48.630;9.162;2023-08-21T06:37:07;98036.59;;;20.07;100.00
498;BME280;39559;48.630;9.162;2023-08-21T06:39:33;98046.38;;;20.18;100.00
498;BME280;39559;48.630;9.162;2023-08-21T06:41:59;98044.00;;;20.26;100.00
498;BME280;39559;48.630;9.162;2023-08-21T06:44:26;98046.94;;;20.35;100.00
498;BME280;39559;48.630;9.162;2023-08-21T06:46:51;98040.50;;;20.50;100.00
498;BME280;39559;48.630;9.162;2023-08-21T06:49:17;98039.63;;;20.62;100.00
498;BME280;39559;48.630;9.162;2023-08-21T06:51:43;98053.72;;;20.74;100.00
498;BME280;39559;48.630;9.162;2023-08-21T06:54:08;98049.06;;;20.89;100.00
498;BME280;39559;48.630;9.162;2023-08-21T06:56:34;98049.47;;;20.96;100.00
498;BME280;39559;48.630;9.162;2023-08-21T07:01:02;98048.06;;;21.25;100.00
498;BME280;39559;48.630;9.162;2023-08-21T07:03:27;98055.16;;;21.36;100.00
498;BME280;39559;48.630;9.162;2023-08-21T07:05:57;98054.47;;;21.45;100.00
498;BME280;39559;48.630;9.162;2023-08-21T07:08:24;98048.09;;;21.59;100.00
498;BME280;39559;48.630;9.162;2023-08-21T07:10:50;98055.66;;;21.75;100.00
498;BME280;39559;48.630;9.162;2023-08-21T07:13:16;98055.88;;;21.83;100.00
498;BME280;39559;48.630;9.162;2023-08-21T07:15:41;98053.94;;;21.97;100.00
498;BME280;39559;48.630;9.162;2023-08-21T07:18:07;98054.06;;;22.07;100.00
498;BME280;39559;48.630;9.162;2023-08-21T07:20:33;98050.28;;;22.20;100.00
498;BME280;39559;48.630;9.162;2023-08-21T07:24:57;98052.03;;;22.42;100.00
498;BME280;39559;48.630;9.162;2023-08-21T07:27:22;98050.69;;;22.48;100.00
498;BME280;39559;48.630;9.162;2023-08-21T07:29:48;98050.31;;;22.53;100.00
498;BME280;39559;48.630;9.162;2023-08-21T07:32:13;98050.06;;;22.77;100.00
498;BME280;39559;48.630;9.162;2023-08-21T07:34:39;98051.63;;;23.00;100.00
498;BME280;39559;48.630;9.162;2023-08-21T07:37:09;98051.16;;;23.07;100.00
498;BME280;39559;48.630;9.162;2023-08-21T07:39:35;98055.47;;;23.08;100.00
498;BME280;39559;48.630;9.162;2023-08-21T07:42:01;98053.44;;;23.21;100.00
498;BME280;39559;48.630;9.162;2023-08-21T07:44:26;98054.22;;;23.33;100.00
498;BME280;39559;48.630;9.162;2023-08-21T07:48:52;98054.13;;;23.44;100.00
498;BME280;39559;48.630;9.162;2023-08-21T07:51:18;98054.47;;;23.61;100.00
498;BME280;39559;48.630;9.162;2023-08-21T07:53:45;98049.75;;;23.64;100.00
498;BME280;39559;48.630;9.162;2023-08-21T07:56:10;98055.09;;;23.74;100.00
498;BME280;39559;48.630;9.162;2023-08-21T07:58:36;98055.53;;;23.79;100.00
498;BME280;39559;48.630;9.162;2023-08-21T08:01:02;98054.91;;;23.97;100.00
498;BME280;39559;48.630;9.162;2023-08-21T08:03:30;98052.97;;;24.08;100.00
498;BME280;39559;48.630;9.162;2023-08-21T08:05:56;98052.19;;;24.18;100.00
498;BME280;39559;48.630;9.162;2023-08-21T08:08:22;98057.63;;;24.26;100.00
498;BME280;39559;48.630;9.162;2023-08-21T08:12:47;98059.50;;;24.55;100.00
498;BME280;39559;48.630;9.162;2023-08-21T08:15:13;98064.38;;;24.69;100.00
498;BME280;39559;48.630;9.162;2023-08-21T08:17:38;98059.88;;;24.79;100.00
498;BME280;39559;48.630;9.162;2023-08-21T08:20:04;98068.69;;;24.89;100.00
498;BME280;39559;48.630;9.162;2023-08-21T08:22:31;98062.13;;;25.03;100.00
498;BME280;39559;48.630;9.162;2023-08-21T08:24:57;98063.06;;;25.12;100.00
498;BME280;39559;48.630;9.162;2023-08-21T08:27:23;98060.81;;;25.17;100.00
498;BME280;39559;48.630;9.162;2023-08-21T08:29:49;98059.97;;;25.26;100.00
498;BME280;39559;48.630;9.162;2023-08-21T08:32:15;98066.00;;;25.19;100.00
498;BME280;39559;48.630;9.162;2023-08-21T08:36:41;98063.09;;;25.59;100.00
498;BME280;39559;48.630;9.162;2023-08-21T08:39:07;98054.97;;;25.98;100.00
498;BME280;39559;48.630;9.162;2023-08-21T08:41:46;98057.22;;;26.39;100.00
498;BME280;39559;48.630;9.162;2023-08-21T08:44:17;98054.84;;;26.54;100.00
498;BME280;39559;48.630;9.162;2023-08-21T08:46:43;98051.97;;;26.47;100.00
498;BME280;39559;48.630;9.162;2023-08-21T08:49:09;98058.53;;;26.71;100.00
498;BME280;39559;48.630;9.162;2023-08-21T08:51:37;98057.53;;;26.72;100.00
498;BME280;39559;48.630;9.162;2023-08-21T08:54:06;98053.38;;;26.69;100.00
498;BME280;39559;48.630;9.162;2023-08-21T08:56:33;98055.78;;;26.62;100.00
498;BME280;39559;48.630;9.162;2023-08-21T09:00:36;98057.50;;;26.36;100.00
498;BME280;39559;48.630;9.162;2023-08-21T09:03:03;98049.78;;;26.60;100.00
498;BME280;39559;48.630;9.162;2023-08-21T09:05:29;98057.22;;;26.39;100.00
498;BME280;39559;48.630;9.162;2023-08-21T09:08:13;98052.31;;;26.52;100.00
498;BME280;39559;48.630;9.162;2023-08-21T09:10:42;98053.28;;;26.61;100.00
498;BME280;39559;48.630;9.162;2023-08-21T09:13:11;98046.06;;;26.71;100.00
498;BME280;39559;48.630;9.162;2023-08-21T09:15:37;98046.47;;;26.85;100.00
498;BME280;39559;48.630;9.162;2023-08-21T09:18:03;98049.94;;;27.03;100.00
498;BME280;39559;48.630;9.162;2023-08-21T09:20:35;98049.53;;;26.90;100.00
498;BME280;39559;48.630;9.162;2023-08-21T09:24:31;98041.50;;;27.08;100.00
498;BME280;39559;48.630;9.162;2023-08-21T09:26:56;98048.41;;;27.18;100.00
498;BME280;39559;48.630;9.162;2023-08-21T09:29:25;98040.03;;;27.39;100.00
498;BME280;39559;48.630;9.162;2023-08-21T09:31:50;98034.69;;;27.39;100.00
498;BME280;39559;48.630;9.162;2023-08-21T09:34:16;98042.25;;;27.44;100.00
498;BME280;39559;48.630;9.162;2023-08-21T09:36:42;98037.41;;;27.48;100.00
498;BME280;39559;48.630;9.162;2023-08-21T09:39:15;98036.75;;;27.46;100.00
498;BME280;39559;48.630;9.162;2023-08-21T09:41:54;98036.59;;;27.47;100.00
498;BME280;39559;48.630;9.162;2023-08-21T09:44:24;98034.78;;;27.56;100.00
498;BME280;39559;48.630;9.162;2023-08-21T09:48:26;98038.47;;;27.98;100.00
498;BME280;39559;48.630;9.162;2023-08-21T09:50:54;98037.59;;;27.89;100.00
498;BME280;39559;48.630;9.162;2023-08-21T09:53:21;98034.06;;;27.88;95.04
498;BME280;39559;48.630;9.162;2023-08-21T09:55:52;98030.53;;;27.71;91.76
498;BME280;39559;48.630;9.162;2023-08-21T09:58:20;98030.06;;;27.84;93.60
498;BME280;39559;48.630;9.162;2023-08-21T10:00:49;98034.16;;;28.05;94.90
498;BME280;39559;48.630;9.162;2023-08-21T10:03:21;98028.53;;;28.16;92.76
498;BME280;39559;48.630;9.162;2023-08-21T10:05:47;98037.34;;;28.08;93.35
498;BME280;39559;48.630;9.162;2023-08-21T10:08:15;98030.00;;;28.10;91.03
498;BME280;39559;48.630;9.162;2023-08-21T10:12:20;98027.78;;;27.98;91.16
498;BME280;39559;48.630;9.162;2023-08-21T10:14:47;98032.72;;;27.84;96.87
498;BME280;39559;48.630;9.162;2023-08-21T10:17:13;98030.28;;;27.91;87.71
498;BME280;39559;48.630;9.162;2023-08-21T10:19:39;98029.16;;;28.02;88.50
498;BME280;39559;48.630;9.162;2023-08-21T10:22:04;98020.50;;;28.08;85.06
498;BME280;39559;48.630;9.162;2023-08-21T10:24:35;98020.03;;;28.29;81.47
498;BME280;39559;48.630;9.162;2023-08-21T10:27:02;98011.75;;;28.57;90.03
498;BME280;39559;48.630;9.162;2023-08-21T10:29:28;98017.38;;;28.29;88.50
498;BME280;39559;48.630;9.162;2023-08-21T10:32:01;98010.91;;;28.56;79.89
498;BME280;39559;48.630;9.162;2023-08-21T10:36:14;98020.91;;;28.62;82.21
498;BME280;39559;48.630;9.162;2023-08-21T10:38:59;98004.88;;;28.62;80.64
498;BME280;39559;48.630;9.162;2023-08-21T10:41:27;98000.38;;;28.71;84.51
498;BME280;39559;48.630;9.162;2023-08-21T10:43:53;97998.84;;;28.68;81.50
498;BME280;39559;48.630;9.162;2023-08-21T10:46:19;97996.50;;;28.90;77.42
498;BME280;39559;48.630;9.162;2023-08-21T10:48:45;97998.34;;;28.89;80.09
498;BME280;39559;48.630;9.162;2023-08-21T10:51:10;97999.50;;;28.46;83.88
498;BME280;39559;48.630;9.162;2023-08-21T10:53:39;97991.81;;;28.92;82.02
498;BME280;39559;48.630;9.162;2023-08-21T10:56:07;98000.00;;;28.99;82.32
498;BME280;39559;48.630;9.162;2023-08-21T11:00:16;97997.03;;;28.85;81.26
498;BME280;39559;48.630;9.162;2023-08-21T11:02:46;97981.06;;;29.33;77.24
498;BME280;39559;48.630;9.162;2023-08-21T11:05:13;97994.13;;;29.12;74.20
498;BME280;39559;48.630;9.162;2023-08-21T11:07:44;97986.19;;;29.51;81.54
498;BME280;39559;48.630;9.162;2023-08-21T11:10:15;97985.31;;;29.59;82.41
498;BME280;39559;48.630;9.162;2023-08-21T11:12:55;97984.19;;;29.45;84.38
498;BME280;39559;48.630;9.162;2023-08-21T11:15:22;97976.81;;;29.86;79.12
498;BME280;39559;48.630;9.162;2023-08-21T11:17:54;97982.94;;;29.64;77.14
498;BME280;39559;48.630;9.162;2023-08-21T11:20:20;97987.41;;;29.72;78.64
498;BME280;39559;48.630;9.162;2023-08-21T11:24:02;97984.81;;;30.18;80.01
498;BME280;39559;48.630;9.162;2023-08-21T11:26:28;97978.44;;;29.96;78.77
498;BME280;39559;48.630;9.162;2023-08-21T11:28:55;97984.53;;;29.42;82.38
498;BME280;39559;48.630;9.162;2023-08-21T11:31:21;97985.88;;;29.85;79.38
498;BME280;39559;48.630;9.162;2023-08-21T11:33:50;97985.03;;;30.16;80.78
498;BME280;39559;48.630;9.162;2023-08-21T11:36:16;97979.66;;;30.16;78.86
498;BME280;39559;48.630;9.162;2023-08-21T11:38:58;97986.41;;;30.35;73.32
498;BME280;39559;48.630;9.162;2023-08-21T11:41:24;97982.94;;;30.50;78.44
498;BME280;39559;48.630;9.162;2023-08-21T11:43:50;97987.50;;;30.49;75.57
498;BME280;39559;48.630;9.162;2023-08-21T11:48:00;97984.72;;;30.34;74.47
498;BME280;39559;48.630;9.162;2023-08-21T11:50:25;97972.41;;;30.48;75.82
498;BME280;39559;48.630;9.162;2023-08-21T11:52:53;97968.25;;;30.84;77.33
498;BME280;39559;48.630;9.162;2023-08-21T11:55:20;97966.09;;;30.79;73.54
498;BME280;39559;48.630;9.162;2023-08-21T11:57:49;97971.44;;;31.17;75.18
498;BME280;39559;48.630;9.162;2023-08-21T12:00:16;97967.03;;;30.86;73.78
498;BME280;39559;48.630;9.162;2023-08-21T12:02:58;97967.53;;;30.67;69.97
498;BME280;39559;48.630;9.162;2023-08-21T12:05:25;97964.22;;;31.03;74.11
498;BME280;39559;48.630;9.162;2023-08-21T12:07:51;97955.41;;;31.09;72.21
498;BME280;39559;48.630;9.162;2023-08-21T12:11:49;97952.00;;;31.15;70.25
498;BME280;39559;48.630;9.162;2023-08-21T12:14:15;97959.97;;;31.08;69.44
498;BME280;39559;48.630;9.162;2023-08-21T12:16:42;97953.00;;;31.29;70.49
498;BME280;39559;48.630;9.162;2023-08-21T12:19:07;97952.00;;;31.15;75.36
498;BME280;39559;48.630;9.162;2023-08-21T12:21:35;97952.94;;;31.22;73.58
498;BME280;39559;48.630;9.162;2023-08-21T12:24:04;97954.97;;;31.35;72.16
498;BME280;39559;48.630;9.162;2023-08-21T12:26:30;97949.59;;;31.35;70.37
498;BME280;39559;48.630;9.162;2023-08-21T12:28:56;97951.22;;;30.76;75.78
498;BME280;39559;48.630;9.162;2023-08-21T12:31:22;97949.88;;;30.95;74.52
498;BME280;39559;48.630;9.162;2023-08-21T12:35:46;97943.38;;;31.34;71.68
498;BME280;39559;48.630;9.162;2023-08-21T12:38:11;97941.88;;;31.47;72.01
498;BME280;39559;48.630;9.162;2023-08-21T12:40:38;97931.34;;;31.45;66.74
498;BME280;39559;48.630;9.162;2023-08-21T12:43:04;97941.44;;;31.58;70.43
498;BME280;39559;48.630;9.162;2023-08-21T12:45:29;97931.03;;;31.70;66.55
498;BME280;39559;48.630;9.162;2023-08-21T12:47:55;97927.72;;;31.68;62.51
498;BME280;39559;48.630;9.162;2023-08-21T12:50:21;97926.84;;;31.82;64.94
498;BME280;39559;48.630;9.162;2023-08-21T12:52:46;97920.66;;;32.03;68.32
498;BME280;39559;48.630;9.162;2023-08-21T12:55:12;97916.03;;;31.97;64.89
498;BME280;39559;48.630;9.162;2023-08-21T12:59:37;97916.06;;;31.61;62.81
498;BME280;39559;48.630;9.162;2023-08-21T13:02:03;97916.59;;;32.07;65.54
498;BME280;39559;48.630;9.162;2023-08-21T13:04:29;97916.16;;;31.67;62.39
498;BME280;39559;48.630;9.162;2023-08-21T13:06:55;97917.22;;;31.51;64.55
498;BME280;39559;48.630;9.162;2023-08-21T13:09:21;97911.59;;;31.68;64.31
498;BME280;39559;48.630;9.162;2023-08-21T13:11:50;97905.66;;;31.72;67.96
498;BME280;39559;48.630;9.162;2023-08-21T13:14:16;97907.69;;;31.19;67.22
498;BME280;39559;48.630;9.162;2023-08-21T13:16:42;97909.16;;;31.07;66.95
498;BME280;39559;48.630;9.162;2023-08-21T13:19:07;97900.16;;;31.44;63.17
498;BME280;39559;48.630;9.162;2023-08-21T13:23:29;97900.66;;;31.48;66.68
498;BME280;39559;48.630;9.162;2023-08-21T13:25:56;97901.78;;;31.75;60.49
498;BME280;39559;48.630;9.162;2023-08-21T13:28:23;97905.41;;;31.67;63.64
498;BME280;39559;48.630;9.162;2023-08-21T13:30:48;97901.06;;;31.88;62.32
498;BME280;39559;48.630;9.162;2023-08-21T13:33:16;97895.78;;;31.94;64.95
498;BME280;39559;48.630;9.162;2023-08-21T13:35:44;97893.59;;;32.26;63.14
498;BME280;39559;48.630;9.162;2023-08-21T13:38:12;97893.75;;;32.46;61.99
498;BME280;39559;48.630;9.162;2023-08-21T13:40:37;97888.78;;;32.22;60.62
498;BME280;39559;48.630;9.162;2023-08-21T13:43:03;97887.16;;;32.21;59.35
498;BME280;39559;48.630;9.162;2023-08-21T13:47:20;97883.03;;;32.25;63.20
498;BME280;39559;48.630;9.162;2023-08-21T13:49:46;97885.66;;;32.18;62.22
498;BME280;39559;48.630;9.162;2023-08-21T13:52:12;97877.94;;;32.08;60.21
498;BME280;39559;48.630;9.162;2023-08-21T13:54:37;97881.13;;;31.75;63.90
498;BME280;39559;48.630;9.162;2023-08-21T13:57:03;97876.03;;;31.29;61.26
498;BME280;39559;48.630;9.162;2023-08-21T13:59:28;97871.03;;;31.26;65.18
498;BME280;39559;48.630;9.162;2023-08-21T14:01:54;97871.53;;;31.15;64.06
498;BME280;39559;48.630;9.162;2023-08-21T14:04:20;97871.84;;;31.27;64.39
498;BME280;39559;48.630;9.162;2023-08-21T14:06:45;97870.97;;;31.05;66.08
498;BME280;39559;48.630;9.162;2023-08-21T14:11:13;97869.88;;;30.99;68.62
498;BME280;39559;48.630;9.162;2023-08-21T14:13:38;97863.84;;;31.12;63.82
498;BME280;39559;48.630;9.162;2023-08-21T14:16:04;97863.25;;;31.31;61.71
498;BME280;39559;48.630;9.162;2023-08-21T14:18:30;97857.94;;;31.38;64.40